createdAt,value
2019-04-30T00:02:01.208Z,27.97
2019-04-30T00:04:42.376Z,28.40
2019-04-30T00:07:19.056Z,28.73
2019-04-30T00:09:53.947Z,30.90
2019-04-30T00:12:31.000Z,29.33
2019-04-30T00:15:06.212Z,32.37
2019-04-30T00:17:40.443Z,29.90
2019-04-30T00:20:15.088Z,30.63
2019-04-30T00:22:50.794Z,31.97
2019-04-30T00:25:28.612Z,29.60
2019-04-30T00:28:07.657Z,32.10
2019-04-30T00:30:39.333Z,34.40
2019-04-30T00:33:21.659Z,35.53
2019-04-30T00:35:55.212Z,31.87
2019-04-30T00:38:29.532Z,33.60
2019-04-30T00:41:08.561Z,32.37
2019-04-30T00:43:46.412Z,35.63
2019-04-30T00:46:17.244Z,35.93
2019-04-30T00:48:51.107Z,34.53
2019-04-30T00:51:26.190Z,37.67
2019-04-30T00:53:59.597Z,40.23
2019-04-30T00:56:35.370Z,35.03
2019-04-30T00:59:10.664Z,36.73
2019-04-30T01:02:27.912Z,37.90
2019-04-30T01:05:05.062Z,38.37
2019-04-30T01:07:33.311Z,39.13
2019-04-30T01:10:11.297Z,34.73
2019-04-30T01:12:49.063Z,38.83
2019-04-30T01:15:21.905Z,38.67
2019-04-30T01:17:56.170Z,37.33
2019-04-30T01:20:32.850Z,37.87
2019-04-30T01:23:08.013Z,39.20
2019-04-30T01:25:43.147Z,38.90
2019-04-30T01:28:23.114Z,41.90
2019-04-30T01:30:58.683Z,41.47
2019-04-30T01:33:34.720Z,38.37
2019-04-30T01:36:13.234Z,37.90
2019-04-30T01:38:44.850Z,45.57
2019-04-30T01:41:20.271Z,39.90
2019-04-30T01:43:55.631Z,36.73
2019-04-30T01:46:30.119Z,38.40
2019-04-30T01:49:03.588Z,38.20
2019-04-30T01:51:38.663Z,40.67
2019-04-30T01:54:13.696Z,38.20
2019-04-30T01:57:10.882Z,38.00
2019-04-30T02:00:03.222Z,38.63
2019-04-30T02:02:41.559Z,38.07
2019-04-30T02:05:18.763Z,38.83
2019-04-30T02:07:52.855Z,36.70
2019-04-30T02:10:28.540Z,40.20
2019-04-30T02:13:02.498Z,39.03
2019-04-30T02:15:36.506Z,39.67
2019-04-30T02:18:09.860Z,39.43
2019-04-30T02:20:43.606Z,38.17
2019-04-30T02:23:19.411Z,40.43
2019-04-30T02:25:52.423Z,41.77
2019-04-30T02:28:26.435Z,38.67
2019-04-30T02:31:00.686Z,34.67
2019-04-30T02:33:36.951Z,39.63
2019-04-30T02:36:30.025Z,43.33
2019-04-30T02:39:04.705Z,40.80
2019-04-30T02:41:41.340Z,39.10
2019-04-30T02:44:19.602Z,37.30
2019-04-30T02:46:56.149Z,39.97
2019-04-30T02:49:32.203Z,38.80
2019-04-30T02:52:09.242Z,42.10
2019-04-30T02:54:45.793Z,38.07
2019-04-30T02:57:22.868Z,38.43
2019-04-30T03:00:20.744Z,41.03
2019-04-30T03:02:55.974Z,36.37
2019-04-30T03:05:31.086Z,40.43
2019-04-30T03:08:06.233Z,37.00
2019-04-30T03:10:41.795Z,44.43
2019-04-30T03:13:19.953Z,46.13
2019-04-30T03:15:52.602Z,42.53
2019-04-30T03:18:31.327Z,41.20
2019-04-30T03:21:12.311Z,40.27
2019-04-30T03:23:46.848Z,41.33
2019-04-30T03:26:21.732Z,40.80
2019-04-30T03:28:56.071Z,41.63
2019-04-30T03:31:32.433Z,44.13
2019-04-30T03:34:12.421Z,41.47
2019-04-30T03:36:43.620Z,51.03
2019-04-30T03:39:19.945Z,44.30
2019-04-30T03:41:53.710Z,42.53
2019-04-30T03:44:32.381Z,43.37
2019-04-30T03:47:06.850Z,44.30
2019-04-30T03:49:41.022Z,38.67
2019-04-30T03:52:14.439Z,39.40
2019-04-30T03:54:49.440Z,42.43
2019-04-30T03:57:23.577Z,42.40
2019-04-30T03:59:59.283Z,43.63
2019-04-30T04:02:44.569Z,38.90
2019-04-30T04:05:52.917Z,41.83
2019-04-30T04:08:39.088Z,41.83
2019-04-30T04:11:20.368Z,44.23
2019-04-30T04:13:54.302Z,42.33
2019-04-30T04:16:29.357Z,46.03
2019-04-30T04:19:02.708Z,45.10
2019-04-30T04:21:41.437Z,47.43
2019-04-30T04:24:15.345Z,44.97
2019-04-30T04:26:50.502Z,47.73
2019-04-30T04:29:23.937Z,46.47
2019-04-30T04:32:00.731Z,47.63
2019-04-30T04:34:33.567Z,48.13
2019-04-30T04:37:10.096Z,44.83
2019-04-30T04:39:43.002Z,45.20
2019-04-30T04:42:19.108Z,49.47
2019-04-30T04:44:52.586Z,47.57
2019-04-30T04:47:26.174Z,50.33
2019-04-30T04:50:00.784Z,48.50
2019-04-30T04:52:34.595Z,45.33
2019-04-30T04:55:09.787Z,50.27
2019-04-30T04:57:43.314Z,46.63
2019-04-30T05:00:22.861Z,45.40
2019-04-30T05:03:06.002Z,47.87
2019-04-30T05:05:49.945Z,46.27
2019-04-30T05:08:28.560Z,49.80
2019-04-30T05:11:04.212Z,45.70
2019-04-30T05:13:39.869Z,47.17
2019-04-30T05:16:18.907Z,45.43
2019-04-30T05:19:01.163Z,49.00
2019-04-30T05:21:42.697Z,41.70
2019-04-30T05:24:14.511Z,47.00
2019-04-30T05:26:48.776Z,46.87
2019-04-30T05:29:22.260Z,47.67
2019-04-30T05:31:58.608Z,45.17
2019-04-30T05:34:32.309Z,45.50
2019-04-30T05:37:11.339Z,41.90
2019-04-30T05:39:48.941Z,42.97
2019-04-30T05:42:30.964Z,39.03
2019-04-30T05:45:04.829Z,43.07
2019-04-30T05:47:42.809Z,42.60
2019-04-30T05:50:19.771Z,43.47
2019-04-30T05:52:59.249Z,43.67
2019-04-30T05:55:32.746Z,37.70
2019-04-30T05:58:06.160Z,42.23
2019-04-30T06:00:40.294Z,42.33
2019-04-30T06:03:24.685Z,41.20
2019-04-30T06:06:04.943Z,40.00
2019-04-30T06:08:49.083Z,41.43
2019-04-30T06:11:40.403Z,38.83
2019-04-30T06:14:48.014Z,39.27
2019-04-30T06:17:13.565Z,44.80
2019-04-30T06:19:48.783Z,40.00
2019-04-30T06:22:31.252Z,43.90
2019-04-30T06:25:57.528Z,43.33
2019-04-30T06:28:34.766Z,40.37
2019-04-30T06:31:14.927Z,38.73
2019-04-30T06:33:54.825Z,36.87
2019-04-30T06:36:30.334Z,37.30
2019-04-30T06:39:02.975Z,34.33
2019-04-30T06:41:36.622Z,30.40
2019-04-30T06:44:09.708Z,33.87
2019-04-30T06:46:42.097Z,35.67
2019-04-30T06:49:15.273Z,32.07
2019-04-30T06:51:49.071Z,29.63
2019-04-30T06:54:22.474Z,40.13
2019-04-30T06:56:55.452Z,33.13
2019-04-30T06:59:29.857Z,36.87
2019-04-30T07:02:01.760Z,33.07
2019-04-30T07:04:33.667Z,37.00
2019-04-30T07:07:05.593Z,33.77
2019-04-30T07:09:58.640Z,34.40
2019-04-30T07:12:50.482Z,40.57
2019-04-30T07:15:23.376Z,36.00
2019-04-30T07:17:55.428Z,32.80
2019-04-30T07:20:29.149Z,33.67
2019-04-30T07:23:03.256Z,34.00
2019-04-30T07:25:35.989Z,34.47
2019-04-30T07:28:09.037Z,40.53
2019-04-30T07:30:42.236Z,39.33
2019-04-30T07:33:15.808Z,39.50
2019-04-30T07:35:49.855Z,37.80
2019-04-30T07:38:22.582Z,33.20
2019-04-30T07:40:59.128Z,39.77
2019-04-30T07:43:35.699Z,40.20
2019-04-30T07:46:12.923Z,36.60
2019-04-30T07:48:50.406Z,37.73
2019-04-30T07:51:23.710Z,32.10
2019-04-30T07:53:59.122Z,35.63
2019-04-30T07:59:11.312Z,37.70
2019-04-30T08:02:00.233Z,36.37
2019-04-30T08:04:36.124Z,36.23
2019-04-30T08:07:09.695Z,35.53
2019-04-30T08:09:38.340Z,42.40
2019-04-30T08:09:42.567Z,34.73
2019-04-30T08:12:22.282Z,35.10
2019-04-30T08:14:52.607Z,33.37
2019-04-30T08:17:30.528Z,36.63
2019-04-30T08:20:03.419Z,35.27
2019-04-30T08:22:35.955Z,34.90
2019-04-30T08:25:09.736Z,34.67
2019-04-30T08:27:43.625Z,34.40
2019-04-30T08:30:25.500Z,33.13
2019-04-30T08:32:53.438Z,36.23
2019-04-30T08:35:25.810Z,33.20
2019-04-30T08:38:00.739Z,37.07
2019-04-30T08:40:33.463Z,38.57
2019-04-30T08:43:05.411Z,36.00
2019-04-30T08:45:40.152Z,33.60
2019-04-30T08:48:12.699Z,38.63
2019-04-30T08:50:45.422Z,34.50
2019-04-30T08:53:29.531Z,37.13
2019-04-30T08:55:55.156Z,32.70
2019-04-30T08:58:34.618Z,35.73
2019-04-30T09:01:08.750Z,34.33
2019-04-30T09:03:45.114Z,34.97
2019-04-30T09:06:25.428Z,34.87
2019-04-30T09:09:18.883Z,39.20
2019-04-30T09:11:55.805Z,35.33
2019-04-30T09:14:35.213Z,36.43
2019-04-30T09:17:09.238Z,34.83
2019-04-30T09:19:43.805Z,32.53
2019-04-30T09:22:16.369Z,32.03
2019-04-30T09:24:49.724Z,32.57
2019-04-30T09:27:29.416Z,31.03
2019-04-30T09:30:01.747Z,30.30
2019-04-30T09:32:33.654Z,32.20
2019-04-30T09:35:05.410Z,36.87
2019-04-30T09:37:39.076Z,33.47
2019-04-30T09:40:18.284Z,32.67
2019-04-30T09:42:44.765Z,28.50
2019-04-30T09:45:15.966Z,28.63
2019-04-30T09:47:47.387Z,26.63
2019-04-30T09:50:18.966Z,25.90
2019-04-30T09:53:00.598Z,29.87
2019-04-30T09:55:32.381Z,29.17
2019-04-30T09:58:16.203Z,32.43
2019-04-30T10:00:39.355Z,25.93
2019-04-30T10:03:11.508Z,27.13
2019-04-30T10:05:45.709Z,31.07
2019-04-30T10:08:18.903Z,25.53
2019-04-30T10:11:06.118Z,30.23
2019-04-30T10:13:38.083Z,24.97
2019-04-30T10:16:29.618Z,26.50
2019-04-30T10:19:02.196Z,27.43
2019-04-30T10:21:34.289Z,27.13
2019-04-30T10:24:13.054Z,24.63
2019-04-30T10:26:41.371Z,25.67
2019-04-30T10:29:13.783Z,26.60
2019-04-30T10:31:45.965Z,24.87
2019-04-30T10:34:18.041Z,27.17
2019-04-30T10:36:50.883Z,24.90
2019-04-30T10:39:23.003Z,25.07
2019-04-30T10:41:55.173Z,24.07
2019-04-30T10:44:27.087Z,23.03
2019-04-30T10:46:59.406Z,25.07
2019-04-30T10:49:35.050Z,28.07
2019-04-30T10:52:09.958Z,28.30
2019-04-30T10:54:45.563Z,31.47
2019-04-30T10:57:24.036Z,31.30
2019-04-30T11:00:00.689Z,31.27
2019-04-30T11:02:33.129Z,32.20
2019-04-30T11:05:06.322Z,34.30
2019-04-30T11:07:43.640Z,30.33
2019-04-30T11:10:19.648Z,32.93
2019-04-30T11:12:52.122Z,32.40
2019-04-30T11:15:29.241Z,31.63
2019-04-30T11:18:02.429Z,31.77
2019-04-30T11:20:39.468Z,32.40
2019-04-30T11:23:14.700Z,29.10
2019-04-30T11:25:46.763Z,30.17
2019-04-30T11:28:25.312Z,33.17
2019-04-30T11:31:39.370Z,31.77
2019-04-30T11:34:16.123Z,30.73
2019-04-30T11:36:48.691Z,32.57
2019-04-30T11:39:23.804Z,34.23
2019-04-30T11:41:59.039Z,31.10
2019-04-30T11:44:35.270Z,37.67
2019-04-30T11:47:37.635Z,33.43
2019-04-30T11:50:13.773Z,34.10
2019-04-30T11:52:51.977Z,31.17
2019-04-30T11:55:29.173Z,34.53
2019-04-30T11:58:01.968Z,32.07
2019-04-30T12:00:36.911Z,32.83
2019-04-30T12:03:11.062Z,30.50
2019-04-30T12:05:42.707Z,30.67
2019-04-30T12:08:22.490Z,30.40
2019-04-30T12:11:10.021Z,30.13
2019-04-30T12:13:52.849Z,30.93
2019-04-30T12:16:24.661Z,31.13
2019-04-30T12:19:00.663Z,25.40
2019-04-30T12:21:34.187Z,27.02
2019-04-30T12:24:06.514Z,27.25
2019-04-30T12:26:38.998Z,27.93
2019-04-30T12:29:11.293Z,31.43
2019-04-30T12:31:43.505Z,28.07
2019-04-30T12:34:15.198Z,27.67
2019-04-30T12:36:47.347Z,26.37
2019-04-30T12:39:21.202Z,27.45
2019-04-30T12:41:53.677Z,26.82
2019-04-30T12:44:26.034Z,30.12
2019-04-30T12:46:59.091Z,27.45
2019-04-30T12:49:51.253Z,28.27
2019-04-30T12:52:49.482Z,29.37
2019-04-30T12:56:00.562Z,32.73
2019-04-30T12:58:36.002Z,24.23
2019-04-30T13:01:10.125Z,26.10
2019-04-30T13:03:55.749Z,28.27
2019-04-30T13:06:24.474Z,25.43
2019-04-30T13:09:00.423Z,30.93
2019-04-30T13:11:32.613Z,25.00
2019-04-30T13:14:05.815Z,25.43
2019-04-30T13:16:39.306Z,26.85
2019-04-30T13:19:12.563Z,25.15
2019-04-30T13:21:45.209Z,26.33
2019-04-30T13:24:16.659Z,26.57
2019-04-30T13:26:49.482Z,24.52
2019-04-30T13:29:30.486Z,25.32
2019-04-30T13:32:04.480Z,23.83
2019-04-30T13:34:44.620Z,26.48
2019-04-30T13:37:19.205Z,24.15
2019-04-30T13:40:15.945Z,25.72
2019-04-30T13:42:51.766Z,24.15
2019-04-30T13:45:24.156Z,25.17
2019-04-30T13:48:00.514Z,25.37
2019-04-30T13:50:39.489Z,26.48
2019-04-30T13:53:13.552Z,23.20
2019-04-30T13:55:46.588Z,21.87
2019-04-30T13:58:20.677Z,23.47
2019-04-30T14:00:53.180Z,23.40
2019-04-30T14:03:39.079Z,22.87
2019-04-30T14:06:14.592Z,25.23
2019-04-30T14:08:49.802Z,27.10
2019-04-30T14:11:24.063Z,24.67
2019-04-30T14:13:57.766Z,25.92
2019-04-30T14:16:33.591Z,27.27
2019-04-30T14:19:08.592Z,25.90
2019-04-30T14:21:44.581Z,27.32
2019-04-30T14:24:20.043Z,22.73
2019-04-30T14:26:54.860Z,25.08
2019-04-30T14:29:29.844Z,24.85
2019-04-30T14:32:02.481Z,24.52
2019-04-30T14:34:39.359Z,25.62
2019-04-30T14:37:13.906Z,26.15
2019-04-30T14:39:47.975Z,27.27
2019-04-30T14:42:21.525Z,25.62
2019-04-30T14:45:05.347Z,31.52
2019-04-30T14:48:02.324Z,30.65
2019-04-30T14:50:35.219Z,26.93
2019-04-30T14:53:13.804Z,29.97
2019-04-30T14:56:08.709Z,25.57
2019-04-30T14:59:00.979Z,28.27
2019-04-30T15:01:49.001Z,26.87
2019-04-30T15:04:21.255Z,26.90
2019-04-30T15:06:59.116Z,29.00
2019-04-30T15:09:33.867Z,33.50
2019-04-30T15:12:07.437Z,30.23
2019-04-30T15:14:41.052Z,28.40
2019-04-30T15:17:13.970Z,31.63
2019-04-30T15:19:49.777Z,28.77
2019-04-30T15:22:24.052Z,32.30
2019-04-30T15:24:59.478Z,29.70
2019-04-30T15:27:34.483Z,34.33
2019-04-30T15:30:09.660Z,30.50
2019-04-30T15:32:43.612Z,29.63
2019-04-30T15:35:16.757Z,27.73
2019-04-30T15:37:50.894Z,25.37
2019-04-30T15:40:24.006Z,31.37
2019-04-30T15:42:58.868Z,29.12
2019-04-30T15:45:31.462Z,29.47
2019-04-30T15:48:04.434Z,29.70
2019-04-30T15:50:39.250Z,31.50
2019-04-30T15:53:14.747Z,31.50
2019-04-30T15:55:49.612Z,30.40
2019-04-30T15:58:25.506Z,29.03
2019-04-30T16:00:59.455Z,31.93
2019-04-30T16:03:35.999Z,30.83
2019-04-30T16:06:10.365Z,30.77
2019-04-30T16:08:49.795Z,29.73
2019-04-30T16:11:44.614Z,30.90
2019-04-30T16:14:29.753Z,30.77
2019-04-30T16:17:12.015Z,30.20
2019-04-30T16:19:44.799Z,27.00
2019-04-30T16:22:20.616Z,27.90
2019-04-30T16:24:54.666Z,30.63
2019-04-30T16:27:27.332Z,31.07
2019-04-30T16:30:00.601Z,27.40
2019-04-30T16:32:34.382Z,28.93
2019-04-30T16:35:09.312Z,29.23
2019-04-30T16:37:44.320Z,31.20
2019-04-30T16:40:22.644Z,29.90
2019-04-30T16:42:57.166Z,32.03
2019-04-30T16:45:33.660Z,31.90
2019-04-30T16:48:07.232Z,31.07
2019-04-30T16:50:40.550Z,32.70
2019-04-30T16:53:14.364Z,30.33
2019-04-30T16:55:50.554Z,32.00
2019-04-30T16:59:12.989Z,30.43
2019-04-30T17:01:57.174Z,27.63
2019-04-30T17:04:34.242Z,28.83
2019-04-30T17:07:19.059Z,26.60
2019-04-30T17:10:01.185Z,29.50
2019-04-30T17:13:03.233Z,38.17
2019-04-30T17:15:41.971Z,31.13
2019-04-30T17:18:20.759Z,31.00
2019-04-30T17:21:03.793Z,30.93
2019-04-30T17:23:45.254Z,32.13
2019-04-30T17:26:25.117Z,28.93
2019-04-30T17:29:03.793Z,32.07
2019-04-30T17:31:48.463Z,33.17
2019-04-30T17:34:30.906Z,34.43
2019-04-30T17:37:06.466Z,30.47
2019-04-30T17:39:41.942Z,31.47
2019-04-30T17:42:17.075Z,31.53
2019-04-30T17:44:56.817Z,33.20
2019-04-30T17:47:29.030Z,31.67
2019-04-30T17:50:02.845Z,33.37
2019-04-30T17:52:37.327Z,33.37
2019-04-30T17:55:13.776Z,32.00
2019-04-30T17:57:48.685Z,34.23
2019-04-30T18:00:23.839Z,29.87
2019-04-30T18:02:57.874Z,33.40
2019-04-30T18:05:31.755Z,31.37
2019-04-30T18:08:08.073Z,32.73
2019-04-30T18:10:44.464Z,31.67
2019-04-30T18:13:19.072Z,30.60
2019-04-30T18:15:54.205Z,33.57
2019-04-30T18:18:38.592Z,32.27
2019-04-30T18:21:28.318Z,30.07
2019-04-30T18:24:53.113Z,33.30
2019-04-30T18:27:45.361Z,34.43
2019-04-30T18:30:21.116Z,35.07
2019-04-30T18:32:54.989Z,33.47
2019-04-30T18:35:29.762Z,31.37
2019-04-30T18:38:04.728Z,36.23
2019-04-30T18:40:43.403Z,34.83
2019-04-30T18:43:20.403Z,33.53
2019-04-30T18:45:54.476Z,33.83
2019-04-30T18:48:29.447Z,34.63
2019-04-30T18:51:18.980Z,33.20
2019-04-30T18:53:40.584Z,34.20
2019-04-30T18:56:14.891Z,31.90
2019-04-30T18:58:49.793Z,33.47
2019-04-30T19:01:23.996Z,32.83
2019-04-30T19:03:58.477Z,31.90
2019-04-30T19:06:33.674Z,33.47
2019-04-30T19:09:31.718Z,33.40
2019-04-30T19:12:29.154Z,32.30
2019-04-30T19:15:21.526Z,31.83
2019-04-30T19:18:15.241Z,34.20
2019-04-30T19:20:52.022Z,35.63
2019-04-30T19:23:29.019Z,32.93
2019-04-30T19:26:02.584Z,34.13
2019-04-30T19:28:36.393Z,35.10
2019-04-30T19:31:11.737Z,32.43
2019-04-30T19:34:04.618Z,33.60
2019-04-30T19:36:40.673Z,34.70
2019-04-30T19:39:19.520Z,31.97
2019-04-30T19:41:54.180Z,35.63
2019-04-30T19:44:29.379Z,35.43
2019-04-30T19:47:04.176Z,37.73
2019-04-30T19:49:55.593Z,34.13
2019-04-30T19:52:30.293Z,36.47
2019-04-30T19:55:22.431Z,36.30
2019-04-30T19:57:59.711Z,36.33
2019-04-30T20:00:33.089Z,36.90
2019-04-30T20:03:09.644Z,38.57
2019-04-30T20:05:43.965Z,43.20
2019-04-30T20:08:19.873Z,36.70
2019-04-30T20:10:54.978Z,43.57
2019-04-30T20:13:37.004Z,45.30
2019-04-30T20:16:09.623Z,41.47
2019-04-30T20:18:44.621Z,49.47
2019-04-30T20:21:28.324Z,49.77
2019-04-30T20:23:59.109Z,46.83
2019-04-30T20:26:35.090Z,50.73
2019-04-30T20:29:10.082Z,43.73
2019-04-30T20:31:48.752Z,42.27
2019-04-30T20:34:24.344Z,39.73
2019-04-30T20:37:00.326Z,46.17
2019-04-30T20:39:54.721Z,44.83
2019-04-30T20:42:36.126Z,52.13
2019-04-30T20:45:16.495Z,61.97
2019-04-30T20:47:52.130Z,66.37
2019-04-30T20:50:33.922Z,68.57
2019-04-30T20:53:11.816Z,66.03
2019-04-30T20:55:46.717Z,61.30
2019-04-30T20:58:22.885Z,60.13
2019-04-30T21:01:04.090Z,56.13
2019-04-30T21:03:35.308Z,58.17
2019-04-30T21:06:10.171Z,61.27
2019-04-30T21:08:44.541Z,62.37
2019-04-30T21:11:20.485Z,53.77
2019-04-30T21:13:54.736Z,62.87
2019-04-30T21:16:29.339Z,56.43
2019-04-30T21:19:05.071Z,52.80
2019-04-30T21:21:39.546Z,52.37
2019-04-30T21:24:15.891Z,54.33
2019-04-30T21:26:52.244Z,49.77
2019-04-30T21:29:29.488Z,47.20
2019-04-30T21:32:29.045Z,48.70
2019-04-30T21:35:24.739Z,54.77
2019-04-30T21:38:01.803Z,44.33
2019-04-30T21:40:39.316Z,45.73
2019-04-30T21:43:13.750Z,39.80
2019-04-30T21:45:49.370Z,40.87
2019-04-30T21:48:28.760Z,40.07
2019-04-30T21:51:05.728Z,40.97
2019-04-30T21:53:40.811Z,40.40
2019-04-30T21:56:23.650Z,39.87
2019-04-30T21:59:03.547Z,38.00
2019-04-30T22:01:38.948Z,40.50
2019-04-30T22:04:15.607Z,36.30
2019-04-30T22:06:50.083Z,37.30
2019-04-30T22:09:25.019Z,41.57
2019-04-30T22:12:00.207Z,43.40
2019-04-30T22:14:36.250Z,36.17
2019-04-30T22:17:11.105Z,42.20
2019-04-30T22:19:49.127Z,41.40
2019-04-30T22:22:25.315Z,43.33
2019-04-30T22:25:05.092Z,48.17
2019-04-30T22:27:41.900Z,47.97
2019-04-30T22:30:17.275Z,45.27
2019-04-30T22:32:51.450Z,49.73
2019-04-30T22:35:45.431Z,43.03
2019-04-30T22:38:23.823Z,45.97
2019-04-30T22:40:58.991Z,43.70
2019-04-30T22:43:35.571Z,48.57
2019-04-30T22:46:15.382Z,49.87
2019-04-30T22:48:50.956Z,50.87
2019-04-30T22:51:27.037Z,50.20
2019-04-30T22:54:02.378Z,51.03
2019-04-30T22:56:37.968Z,52.00
2019-04-30T22:59:13.988Z,50.43
2019-04-30T23:02:08.452Z,53.53
2019-04-30T23:04:45.788Z,54.23
2019-04-30T23:07:20.120Z,49.23
2019-04-30T23:09:56.639Z,54.77
2019-04-30T23:12:30.673Z,53.00
2019-04-30T23:15:05.096Z,54.93
2019-04-30T23:17:40.123Z,50.90
2019-04-30T23:20:13.724Z,58.47
2019-04-30T23:22:47.682Z,59.53
2019-04-30T23:25:26.411Z,48.87
2019-04-30T23:28:01.510Z,52.33
2019-04-30T23:30:35.829Z,58.80
2019-04-30T23:33:11.079Z,61.87
2019-04-30T23:35:48.522Z,61.27
2019-04-30T23:38:23.354Z,60.30
2019-04-30T23:40:58.769Z,57.27
2019-04-30T23:43:33.602Z,61.83
2019-04-30T23:46:08.738Z,66.17
2019-04-30T23:48:45.063Z,56.67
2019-04-30T23:51:20.634Z,59.60
2019-04-30T23:53:55.553Z,66.03
2019-04-30T23:56:30.373Z,65.53
2019-04-30T23:59:06.615Z,59.33
